Barksdale AFB, Louisiana
Current Conditions -  °F | °C
As of 5:58 PM on Saturday 25 Oct 2014 (Local Time) from KBAD Reporting Station
Clear Clear  
Wind Chill: 83°   Ceiling: Unl
Heat Index: 83°   Visibility: 10mi
Dew Point: 62°   Wind: 6mph
Humidity: 50%   Direction: 280°W
Pressure: 30.06"   Gusts: NA
Location:  32.5°N, 93.67°W
Report Text: KBAD 252258Z AUTO 28005KT 10SM CLR 28/17 A3006 RMK AO2 SLP181 T02810169
Loading
Personal Weather Stations






























Interactive Weather Map
Tropical Storm Tracking
New forecast layout! Learn more

10-Day Weather Forecast

Advertisements
Track Severe Weather on mobile